sensor_id;sensor_type;location;lat;lon;timestamp;P1;durP1;ratioP1;P2;durP2;ratioP2
42134;SDS011;28312;43.460;11.810;2023-05-10T00:02:04;2.22;;;1.30;;
42134;SDS011;28312;43.460;11.810;2023-05-10T00:06:10;1.85;;;1.25;;
42134;SDS011;28312;43.460;11.810;2023-05-10T00:10:15;2.53;;;1.30;;
42134;SDS011;28312;43.460;11.810;2023-05-10T00:14:20;1.90;;;1.10;;
42134;SDS011;28312;43.460;11.810;2023-05-10T00:18:24;2.25;;;1.48;;
42134;SDS011;28312;43.460;11.810;2023-05-10T00:22:27;1.85;;;1.30;;
42134;SDS011;28312;43.460;11.810;2023-05-10T00:26:30;2.15;;;1.48;;
42134;SDS011;28312;43.460;11.810;2023-05-10T00:30:35;2.10;;;1.20;;
42134;SDS011;28312;43.460;11.810;2023-05-10T00:34:40;2.08;;;1.25;;
42134;SDS011;28312;43.460;11.810;2023-05-10T00:38:44;3.90;;;3.13;;
42134;SDS011;28312;43.460;11.810;2023-05-10T00:42:49;4.53;;;3.40;;
42134;SDS011;28312;43.460;11.810;2023-05-10T00:46:52;3.08;;;2.15;;
42134;SDS011;28312;43.460;11.810;2023-05-10T00:50:57;3.78;;;3.10;;
42134;SDS011;28312;43.460;11.810;2023-05-10T00:55:00;3.53;;;2.38;;
42134;SDS011;28312;43.460;11.810;2023-05-10T00:59:07;3.20;;;1.87;;
42134;SDS011;28312;43.460;11.810;2023-05-10T01:03:12;3.35;;;2.30;;
42134;SDS011;28312;43.460;11.810;2023-05-10T01:07:16;2.17;;;1.30;;
42134;SDS011;28312;43.460;11.810;2023-05-10T01:11:19;2.47;;;1.60;;
42134;SDS011;28312;43.460;11.810;2023-05-10T01:15:23;1.83;;;1.40;;
42134;SDS011;28312;43.460;11.810;2023-05-10T01:19:27;2.35;;;1.60;;
42134;SDS011;28312;43.460;11.810;2023-05-10T01:23:57;1.73;;;1.10;;
42134;SDS011;28312;43.460;11.810;2023-05-10T01:32:56;1.63;;;1.00;;
42134;SDS011;28312;43.460;11.810;2023-05-10T01:37:09;6.53;;;3.95;;
42134;SDS011;28312;43.460;11.810;2023-05-10T01:41:18;2.25;;;1.45;;
42134;SDS011;28312;43.460;11.810;2023-05-10T01:45:35;2.28;;;1.60;;
42134;SDS011;28312;43.460;11.810;2023-05-10T01:49:43;2.08;;;1.27;;
42134;SDS011;28312;43.460;11.810;2023-05-10T01:53:54;2.45;;;1.20;;
42134;SDS011;28312;43.460;11.810;2023-05-10T01:58:11;1.98;;;1.05;;
42134;SDS011;28312;43.460;11.810;2023-05-10T02:02:18;1.67;;;0.88;;
42134;SDS011;28312;43.460;11.810;2023-05-10T02:06:24;1.50;;;0.93;;
42134;SDS011;28312;43.460;11.810;2023-05-10T02:10:29;1.80;;;1.30;;
42134;SDS011;28312;43.460;11.810;2023-05-10T02:14:36;2.10;;;1.35;;
42134;SDS011;28312;43.460;11.810;2023-05-10T02:18:42;2.45;;;1.65;;
42134;SDS011;28312;43.460;11.810;2023-05-10T02:22:48;1.83;;;1.30;;
42134;SDS011;28312;43.460;11.810;2023-05-10T02:26:54;2.67;;;1.83;;
42134;SDS011;28312;43.460;11.810;2023-05-10T02:35:03;1.33;;;0.80;;
42134;SDS011;28312;43.460;11.810;2023-05-10T02:39:09;3.63;;;1.70;;
42134;SDS011;28312;43.460;11.810;2023-05-10T02:43:16;2.75;;;1.90;;
42134;SDS011;28312;43.460;11.810;2023-05-10T02:47:23;1.60;;;1.15;;
42134;SDS011;28312;43.460;11.810;2023-05-10T02:51:28;1.70;;;0.95;;
42134;SDS011;28312;43.460;11.810;2023-05-10T02:55:39;1.83;;;1.20;;
42134;SDS011;28312;43.460;11.810;2023-05-10T02:59:44;3.55;;;1.45;;
42134;SDS011;28312;43.460;11.810;2023-05-10T03:03:49;2.00;;;1.00;;
42134;SDS011;28312;43.460;11.810;2023-05-10T03:07:52;2.17;;;1.35;;
42134;SDS011;28312;43.460;11.810;2023-05-10T03:12:04;1.70;;;1.15;;
42134;SDS011;28312;43.460;11.810;2023-05-10T03:16:46;2.33;;;1.67;;
42134;SDS011;28312;43.460;11.810;2023-05-10T03:20:57;3.55;;;1.73;;
42134;SDS011;28312;43.460;11.810;2023-05-10T03:25:05;2.35;;;1.55;;
42134;SDS011;28312;43.460;11.810;2023-05-10T03:29:12;2.10;;;1.20;;
42134;SDS011;28312;43.460;11.810;2023-05-10T03:33:18;4.22;;;1.38;;
42134;SDS011;28312;43.460;11.810;2023-05-10T03:37:21;1.75;;;1.25;;
42134;SDS011;28312;43.460;11.810;2023-05-10T03:41:25;2.88;;;2.40;;
42134;SDS011;28312;43.460;11.810;2023-05-10T03:45:29;2.13;;;1.45;;
42134;SDS011;28312;43.460;11.810;2023-05-10T03:49:34;2.83;;;1.98;;
42134;SDS011;28312;43.460;11.810;2023-05-10T03:53:38;2.10;;;1.30;;
42134;SDS011;28312;43.460;11.810;2023-05-10T03:57:42;1.95;;;1.30;;
42134;SDS011;28312;43.460;11.810;2023-05-10T04:01:45;2.08;;;1.20;;
42134;SDS011;28312;43.460;11.810;2023-05-10T04:05:49;2.65;;;1.55;;
42134;SDS011;28312;43.460;11.810;2023-05-10T04:10:06;2.38;;;1.73;;
42134;SDS011;28312;43.460;11.810;2023-05-10T04:14:10;2.78;;;1.85;;
42134;SDS011;28312;43.460;11.810;2023-05-10T04:18:13;2.85;;;1.80;;
42134;SDS011;28312;43.460;11.810;2023-05-10T04:22:16;2.40;;;1.58;;
42134;SDS011;28312;43.460;11.810;2023-05-10T04:26:20;2.40;;;1.77;;
42134;SDS011;28312;43.460;11.810;2023-05-10T04:30:24;2.17;;;1.33;;
42134;SDS011;28312;43.460;11.810;2023-05-10T04:34:27;2.10;;;1.13;;
42134;SDS011;28312;43.460;11.810;2023-05-10T04:38:31;2.53;;;1.33;;
42134;SDS011;28312;43.460;11.810;2023-05-10T04:42:34;3.60;;;1.77;;
42134;SDS011;28312;43.460;11.810;2023-05-10T04:46:37;4.07;;;2.67;;
42134;SDS011;28312;43.460;11.810;2023-05-10T04:50:41;2.20;;;1.40;;
42134;SDS011;28312;43.460;11.810;2023-05-10T04:54:44;1.80;;;1.00;;
42134;SDS011;28312;43.460;11.810;2023-05-10T04:58:49;1.58;;;1.02;;
42134;SDS011;28312;43.460;11.810;2023-05-10T05:02:53;2.80;;;1.58;;
42134;SDS011;28312;43.460;11.810;2023-05-10T05:06:56;2.97;;;1.98;;
42134;SDS011;28312;43.460;11.810;2023-05-10T05:10:59;2.08;;;1.40;;
42134;SDS011;28312;43.460;11.810;2023-05-10T05:15:03;1.73;;;1.10;;
42134;SDS011;28312;43.460;11.810;2023-05-10T05:19:10;2.28;;;1.50;;
42134;SDS011;28312;43.460;11.810;2023-05-10T05:23:14;1.88;;;1.30;;
42134;SDS011;28312;43.460;11.810;2023-05-10T05:27:17;1.95;;;1.15;;
42134;SDS011;28312;43.460;11.810;2023-05-10T05:31:22;1.77;;;1.17;;
42134;SDS011;28312;43.460;11.810;2023-05-10T05:35:25;2.53;;;1.95;;
42134;SDS011;28312;43.460;11.810;2023-05-10T05:39:29;2.30;;;1.38;;
42134;SDS011;28312;43.460;11.810;2023-05-10T05:43:33;2.50;;;1.75;;
42134;SDS011;28312;43.460;11.810;2023-05-10T05:47:42;1.27;;;0.90;;
42134;SDS011;28312;43.460;11.810;2023-05-10T05:51:45;1.98;;;1.00;;
42134;SDS011;28312;43.460;11.810;2023-05-10T05:55:52;1.85;;;1.05;;
42134;SDS011;28312;43.460;11.810;2023-05-10T06:00:00;2.75;;;1.70;;
42134;SDS011;28312;43.460;11.810;2023-05-10T06:04:13;1.95;;;0.98;;
42134;SDS011;28312;43.460;11.810;2023-05-10T06:08:19;2.00;;;1.20;;
42134;SDS011;28312;43.460;11.810;2023-05-10T06:12:23;1.27;;;0.80;;
42134;SDS011;28312;43.460;11.810;2023-05-10T06:16:26;2.38;;;1.70;;
42134;SDS011;28312;43.460;11.810;2023-05-10T06:20:30;1.88;;;1.00;;
42134;SDS011;28312;43.460;11.810;2023-05-10T06:24:34;2.10;;;1.30;;
42134;SDS011;28312;43.460;11.810;2023-05-10T06:28:38;2.28;;;1.02;;
42134;SDS011;28312;43.460;11.810;2023-05-10T06:32:41;2.78;;;1.48;;
42134;SDS011;28312;43.460;11.810;2023-05-10T06:36:46;3.92;;;3.25;;
42134;SDS011;28312;43.460;11.810;2023-05-10T06:40:49;1.77;;;1.08;;
42134;SDS011;28312;43.460;11.810;2023-05-10T06:44:53;1.95;;;1.02;;
42134;SDS011;28312;43.460;11.810;2023-05-10T06:48:56;1.75;;;1.05;;
42134;SDS011;28312;43.460;11.810;2023-05-10T06:53:00;2.50;;;1.63;;
42134;SDS011;28312;43.460;11.810;2023-05-10T06:57:04;1.50;;;1.05;;
42134;SDS011;28312;43.460;11.810;2023-05-10T07:01:25;2.45;;;1.48;;
42134;SDS011;28312;43.460;11.810;2023-05-10T07:05:29;2.17;;;1.52;;
42134;SDS011;28312;43.460;11.810;2023-05-10T07:09:32;2.15;;;1.27;;
42134;SDS011;28312;43.460;11.810;2023-05-10T07:13:36;4.25;;;2.42;;
42134;SDS011;28312;43.460;11.810;2023-05-10T07:17:42;2.05;;;1.05;;
42134;SDS011;28312;43.460;11.810;2023-05-10T07:21:47;2.10;;;1.25;;
42134;SDS011;28312;43.460;11.810;2023-05-10T07:25:51;1.77;;;1.08;;
42134;SDS011;28312;43.460;11.810;2023-05-10T07:29:54;1.77;;;0.95;;
42134;SDS011;28312;43.460;11.810;2023-05-10T07:33:59;1.90;;;1.48;;
42134;SDS011;28312;43.460;11.810;2023-05-10T07:42:08;1.38;;;0.93;;
42134;SDS011;28312;43.460;11.810;2023-05-10T07:46:12;1.40;;;0.73;;
42134;SDS011;28312;43.460;11.810;2023-05-10T07:50:16;2.40;;;1.27;;
42134;SDS011;28312;43.460;11.810;2023-05-10T07:54:20;1.35;;;0.75;;
42134;SDS011;28312;43.460;11.810;2023-05-10T07:58:24;2.80;;;1.42;;
42134;SDS011;28312;43.460;11.810;2023-05-10T08:02:28;2.53;;;1.40;;
42134;SDS011;28312;43.460;11.810;2023-05-10T08:06:33;2.00;;;1.30;;
42134;SDS011;28312;43.460;11.810;2023-05-10T08:10:36;1.60;;;1.10;;
42134;SDS011;28312;43.460;11.810;2023-05-10T08:14:39;1.52;;;1.17;;
42134;SDS011;28312;43.460;11.810;2023-05-10T08:18:43;2.00;;;1.20;;
42134;SDS011;28312;43.460;11.810;2023-05-10T08:22:48;1.67;;;1.35;;
42134;SDS011;28312;43.460;11.810;2023-05-10T08:26:53;2.65;;;1.30;;
42134;SDS011;28312;43.460;11.810;2023-05-10T08:30:56;2.38;;;1.48;;
42134;SDS011;28312;43.460;11.810;2023-05-10T08:35:00;2.70;;;1.45;;
42134;SDS011;28312;43.460;11.810;2023-05-10T08:39:03;2.45;;;1.20;;
42134;SDS011;28312;43.460;11.810;2023-05-10T08:43:12;2.40;;;1.20;;
42134;SDS011;28312;43.460;11.810;2023-05-10T08:47:19;1.42;;;1.00;;
42134;SDS011;28312;43.460;11.810;2023-05-10T08:51:26;1.75;;;1.20;;
42134;SDS011;28312;43.460;11.810;2023-05-10T08:55:32;2.63;;;1.25;;
42134;SDS011;28312;43.460;11.810;2023-05-10T08:59:36;1.83;;;1.05;;
42134;SDS011;28312;43.460;11.810;2023-05-10T09:03:41;1.40;;;1.00;;
42134;SDS011;28312;43.460;11.810;2023-05-10T09:07:46;2.28;;;1.40;;
42134;SDS011;28312;43.460;11.810;2023-05-10T09:11:49;2.20;;;1.23;;
42134;SDS011;28312;43.460;11.810;2023-05-10T09:15:53;1.35;;;0.88;;
42134;SDS011;28312;43.460;11.810;2023-05-10T09:20:01;1.35;;;0.90;;
42134;SDS011;28312;43.460;11.810;2023-05-10T09:24:07;1.50;;;1.10;;
42134;SDS011;28312;43.460;11.810;2023-05-10T09:28:13;1.45;;;0.88;;
42134;SDS011;28312;43.460;11.810;2023-05-10T09:32:17;1.67;;;0.80;;
42134;SDS011;28312;43.460;11.810;2023-05-10T09:36:21;1.88;;;0.90;;
42134;SDS011;28312;43.460;11.810;2023-05-10T09:40:25;2.13;;;0.93;;
42134;SDS011;28312;43.460;11.810;2023-05-10T09:44:30;2.13;;;1.50;;
42134;SDS011;28312;43.460;11.810;2023-05-10T09:48:39;1.67;;;0.98;;
42134;SDS011;28312;43.460;11.810;2023-05-10T09:52:54;1.40;;;0.80;;
42134;SDS011;28312;43.460;11.810;2023-05-10T09:57:03;0.68;;;0.55;;
42134;SDS011;28312;43.460;11.810;2023-05-10T10:01:10;1.40;;;0.80;;
42134;SDS011;28312;43.460;11.810;2023-05-10T10:05:14;1.17;;;0.70;;
42134;SDS011;28312;43.460;11.810;2023-05-10T10:09:19;1.30;;;0.80;;
42134;SDS011;28312;43.460;11.810;2023-05-10T10:13:22;0.95;;;0.55;;
42134;SDS011;28312;43.460;11.810;2023-05-10T10:17:26;1.85;;;0.95;;
42134;SDS011;28312;43.460;11.810;2023-05-10T10:21:31;0.80;;;0.52;;
42134;SDS011;28312;43.460;11.810;2023-05-10T10:25:35;1.65;;;1.00;;
42134;SDS011;28312;43.460;11.810;2023-05-10T10:34:08;1.25;;;0.60;;
42134;SDS011;28312;43.460;11.810;2023-05-10T10:51:15;0.70;;;0.45;;
42134;SDS011;28312;43.460;11.810;2023-05-10T10:55:19;0.85;;;0.50;;
42134;SDS011;28312;43.460;11.810;2023-05-10T10:59:27;0.95;;;0.55;;
42134;SDS011;28312;43.460;11.810;2023-05-10T11:03:31;2.45;;;0.60;;
42134;SDS011;28312;43.460;11.810;2023-05-10T11:07:34;1.13;;;0.63;;
42134;SDS011;28312;43.460;11.810;2023-05-10T11:11:51;0.98;;;0.70;;
42134;SDS011;28312;43.460;11.810;2023-05-10T11:15:58;0.70;;;0.50;;
42134;SDS011;28312;43.460;11.810;2023-05-10T11:20:13;0.85;;;0.60;;
42134;SDS011;28312;43.460;11.810;2023-05-10T11:24:19;0.60;;;0.43;;
42134;SDS011;28312;43.460;11.810;2023-05-10T11:28:24;1.05;;;0.80;;
42134;SDS011;28312;43.460;11.810;2023-05-10T11:32:29;1.10;;;0.60;;
42134;SDS011;28312;43.460;11.810;2023-05-10T11:36:33;1.00;;;0.40;;
42134;SDS011;28312;43.460;11.810;2023-05-10T11:40:39;0.43;;;0.28;;
42134;SDS011;28312;43.460;11.810;2023-05-10T11:44:45;3.40;;;1.23;;
42134;SDS011;28312;43.460;11.810;2023-05-10T11:48:50;2.13;;;1.40;;
42134;SDS011;28312;43.460;11.810;2023-05-10T11:53:33;0.95;;;0.50;;
42134;SDS011;28312;43.460;11.810;2023-05-10T11:57:45;0.75;;;0.50;;
42134;SDS011;28312;43.460;11.810;2023-05-10T12:01:51;0.52;;;0.40;;
42134;SDS011;28312;43.460;11.810;2023-05-10T12:05:55;0.90;;;0.60;;
42134;SDS011;28312;43.460;11.810;2023-05-10T12:10:09;0.73;;;0.50;;
42134;SDS011;28312;43.460;11.810;2023-05-10T12:14:19;1.13;;;0.57;;
42134;SDS011;28312;43.460;11.810;2023-05-10T12:18:25;1.13;;;0.65;;
42134;SDS011;28312;43.460;11.810;2023-05-10T12:22:29;0.73;;;0.50;;
42134;SDS011;28312;43.460;11.810;2023-05-10T12:26:32;0.75;;;0.30;;
42134;SDS011;28312;43.460;11.810;2023-05-10T12:30:40;0.77;;;0.50;;
42134;SDS011;28312;43.460;11.810;2023-05-10T12:34:43;0.77;;;0.45;;
42134;SDS011;28312;43.460;11.810;2023-05-10T12:38:50;0.60;;;0.40;;
42134;SDS011;28312;43.460;11.810;2023-05-10T12:42:55;0.73;;;0.50;;
42134;SDS011;28312;43.460;11.810;2023-05-10T12:46:58;0.38;;;0.30;;
42134;SDS011;28312;43.460;11.810;2023-05-10T12:51:02;0.82;;;0.40;;
42134;SDS011;28312;43.460;11.810;2023-05-10T12:55:08;0.88;;;0.40;;
42134;SDS011;28312;43.460;11.810;2023-05-10T12:59:12;0.35;;;0.30;;
42134;SDS011;28312;43.460;11.810;2023-05-10T13:03:16;0.75;;;0.47;;
42134;SDS011;28312;43.460;11.810;2023-05-10T13:07:19;0.52;;;0.38;;
42134;SDS011;28312;43.460;11.810;2023-05-10T13:11:23;0.35;;;0.22;;
42134;SDS011;28312;43.460;11.810;2023-05-10T13:15:27;0.30;;;0.20;;
42134;SDS011;28312;43.460;11.810;2023-05-10T13:19:31;0.85;;;0.65;;
42134;SDS011;28312;43.460;11.810;2023-05-10T13:23:34;1.45;;;0.50;;
42134;SDS011;28312;43.460;11.810;2023-05-10T13:27:40;0.65;;;0.40;;
42134;SDS011;28312;43.460;11.810;2023-05-10T13:31:43;0.65;;;0.43;;
42134;SDS011;28312;43.460;11.810;2023-05-10T13:35:47;0.45;;;0.25;;
42134;SDS011;28312;43.460;11.810;2023-05-10T13:39:51;0.40;;;0.40;;
42134;SDS011;28312;43.460;11.810;2023-05-10T13:43:54;1.13;;;0.60;;
42134;SDS011;28312;43.460;11.810;2023-05-10T13:47:58;0.40;;;0.38;;
42134;SDS011;28312;43.460;11.810;2023-05-10T13:52:01;1.13;;;0.52;;
42134;SDS011;28312;43.460;11.810;2023-05-10T13:56:09;0.88;;;0.50;;
42134;SDS011;28312;43.460;11.810;2023-05-10T14:00:13;1.05;;;0.50;;
42134;SDS011;28312;43.460;11.810;2023-05-10T14:04:17;1.25;;;0.70;;
42134;SDS011;28312;43.460;11.810;2023-05-10T14:08:20;0.52;;;0.40;;
42134;SDS011;28312;43.460;11.810;2023-05-10T14:12:25;1.20;;;0.60;;
42134;SDS011;28312;43.460;11.810;2023-05-10T14:16:28;0.98;;;0.63;;
42134;SDS011;28312;43.460;11.810;2023-05-10T14:20:32;1.35;;;0.88;;
42134;SDS011;28312;43.460;11.810;2023-05-10T14:24:37;1.38;;;0.75;;
42134;SDS011;28312;43.460;11.810;2023-05-10T14:28:41;1.50;;;0.70;;
42134;SDS011;28312;43.460;11.810;2023-05-10T14:32:45;1.17;;;0.60;;
42134;SDS011;28312;43.460;11.810;2023-05-10T14:36:48;0.70;;;0.50;;
42134;SDS011;28312;43.460;11.810;2023-05-10T14:40:52;0.65;;;0.40;;
42134;SDS011;28312;43.460;11.810;2023-05-10T14:44:55;1.00;;;0.70;;
42134;SDS011;28312;43.460;11.810;2023-05-10T14:49:00;1.00;;;0.60;;
42134;SDS011;28312;43.460;11.810;2023-05-10T14:53:03;0.57;;;0.43;;
42134;SDS011;28312;43.460;11.810;2023-05-10T14:57:08;1.17;;;0.70;;
42134;SDS011;28312;43.460;11.810;2023-05-10T15:01:11;1.25;;;0.80;;
42134;SDS011;28312;43.460;11.810;2023-05-10T15:05:16;1.63;;;0.88;;
42134;SDS011;28312;43.460;11.810;2023-05-10T15:09:20;1.77;;;0.73;;
42134;SDS011;28312;43.460;11.810;2023-05-10T15:13:24;1.88;;;0.90;;
42134;SDS011;28312;43.460;11.810;2023-05-10T15:17:27;1.00;;;0.70;;
42134;SDS011;28312;43.460;11.810;2023-05-10T15:21:31;1.48;;;0.85;;
42134;SDS011;28312;43.460;11.810;2023-05-10T15:25:41;1.13;;;0.70;;
42134;SDS011;28312;43.460;11.810;2023-05-10T15:29:45;1.85;;;0.98;;
42134;SDS011;28312;43.460;11.810;2023-05-10T15:33:48;1.40;;;0.70;;
42134;SDS011;28312;43.460;11.810;2023-05-10T15:37:52;1.23;;;0.65;;
42134;SDS011;28312;43.460;11.810;2023-05-10T15:41:56;1.02;;;0.70;;
42134;SDS011;28312;43.460;11.810;2023-05-10T15:45:59;0.82;;;0.45;;
42134;SDS011;28312;43.460;11.810;2023-05-10T15:50:03;1.50;;;0.70;;
42134;SDS011;28312;43.460;11.810;2023-05-10T15:54:08;0.65;;;0.52;;
42134;SDS011;28312;43.460;11.810;2023-05-10T15:58:12;1.40;;;0.77;;
42134;SDS011;28312;43.460;11.810;2023-05-10T16:02:15;0.60;;;0.32;;
42134;SDS011;28312;43.460;11.810;2023-05-10T16:06:21;0.75;;;0.50;;
42134;SDS011;28312;43.460;11.810;2023-05-10T16:10:24;1.30;;;0.80;;
42134;SDS011;28312;43.460;11.810;2023-05-10T16:14:28;1.05;;;0.70;;
42134;SDS011;28312;43.460;11.810;2023-05-10T16:18:32;1.20;;;0.80;;
42134;SDS011;28312;43.460;11.810;2023-05-10T16:22:36;0.77;;;0.45;;
42134;SDS011;28312;43.460;11.810;2023-05-10T16:26:40;0.50;;;0.40;;
42134;SDS011;28312;43.460;11.810;2023-05-10T16:30:43;2.25;;;0.47;;
42134;SDS011;28312;43.460;11.810;2023-05-10T16:34:49;0.80;;;0.60;;
42134;SDS011;28312;43.460;11.810;2023-05-10T16:38:52;0.30;;;0.30;;
42134;SDS011;28312;43.460;11.810;2023-05-10T16:42:57;0.60;;;0.43;;
42134;SDS011;28312;43.460;11.810;2023-05-10T16:47:01;0.50;;;0.32;;
42134;SDS011;28312;43.460;11.810;2023-05-10T16:51:05;0.30;;;0.20;;
42134;SDS011;28312;43.460;11.810;2023-05-10T16:55:09;0.25;;;0.22;;
42134;SDS011;28312;43.460;11.810;2023-05-10T16:59:13;0.65;;;0.30;;
42134;SDS011;28312;43.460;11.810;2023-05-10T17:03:16;0.45;;;0.25;;
42134;SDS011;28312;43.460;11.810;2023-05-10T17:07:21;0.30;;;0.22;;
42134;SDS011;28312;43.460;11.810;2023-05-10T17:11:28;0.55;;;0.38;;
42134;SDS011;28312;43.460;11.810;2023-05-10T17:15:31;1.50;;;0.43;;
42134;SDS011;28312;43.460;11.810;2023-05-10T17:19:37;0.40;;;0.30;;
42134;SDS011;28312;43.460;11.810;2023-05-10T17:23:41;1.23;;;0.60;;
42134;SDS011;28312;43.460;11.810;2023-05-10T17:27:45;4.18;;;3.08;;
42134;SDS011;28312;43.460;11.810;2023-05-10T17:31:50;1.08;;;0.80;;
42134;SDS011;28312;43.460;11.810;2023-05-10T17:35:55;0.85;;;0.50;;
42134;SDS011;28312;43.460;11.810;2023-05-10T17:40:03;0.38;;;0.38;;
42134;SDS011;28312;43.460;11.810;2023-05-10T17:44:10;0.88;;;0.70;;
42134;SDS011;28312;43.460;11.810;2023-05-10T17:48:16;0.53;;;0.43;;
42134;SDS011;28312;43.460;11.810;2023-05-10T17:52:20;1.08;;;0.60;;
42134;SDS011;28312;43.460;11.810;2023-05-10T17:56:24;0.43;;;0.30;;
42134;SDS011;28312;43.460;11.810;2023-05-10T18:00:27;0.52;;;0.40;;
42134;SDS011;28312;43.460;11.810;2023-05-10T18:04:31;0.38;;;0.38;;
42134;SDS011;28312;43.460;11.810;2023-05-10T18:08:35;0.77;;;0.50;;
42134;SDS011;28312;43.460;11.810;2023-05-10T18:12:39;0.77;;;0.50;;
42134;SDS011;28312;43.460;11.810;2023-05-10T18:16:44;0.35;;;0.30;;
42134;SDS011;28312;43.460;11.810;2023-05-10T18:21:07;0.30;;;0.20;;
42134;SDS011;28312;43.460;11.810;2023-05-10T18:25:11;0.45;;;0.30;;
42134;SDS011;28312;43.460;11.810;2023-05-10T18:29:16;0.30;;;0.30;;
42134;SDS011;28312;43.460;11.810;2023-05-10T18:33:20;0.47;;;0.30;;
42134;SDS011;28312;43.460;11.810;2023-05-10T18:37:23;0.40;;;0.30;;
42134;SDS011;28312;43.460;11.810;2023-05-10T18:41:27;0.20;;;0.20;;
42134;SDS011;28312;43.460;11.810;2023-05-10T18:45:31;0.57;;;0.30;;
42134;SDS011;28312;43.460;11.810;2023-05-10T18:49:34;1.52;;;0.60;;
42134;SDS011;28312;43.460;11.810;2023-05-10T18:53:37;1.85;;;1.20;;
42134;SDS011;28312;43.460;11.810;2023-05-10T18:57:41;2.25;;;1.50;;
42134;SDS011;28312;43.460;11.810;2023-05-10T19:01:45;2.25;;;1.50;;
42134;SDS011;28312;43.460;11.810;2023-05-10T19:05:52;2.08;;;1.13;;
42134;SDS011;28312;43.460;11.810;2023-05-10T19:09:57;1.00;;;0.60;;
42134;SDS011;28312;43.460;11.810;2023-05-10T19:14:01;1.88;;;1.17;;
42134;SDS011;28312;43.460;11.810;2023-05-10T19:18:07;1.33;;;0.65;;
42134;SDS011;28312;43.460;11.810;2023-05-10T19:22:11;1.08;;;0.70;;
42134;SDS011;28312;43.460;11.810;2023-05-10T19:26:15;1.00;;;0.52;;
42134;SDS011;28312;43.460;11.810;2023-05-10T19:30:20;4.25;;;3.17;;
42134;SDS011;28312;43.460;11.810;2023-05-10T19:34:23;3.25;;;1.55;;
42134;SDS011;28312;43.460;11.810;2023-05-10T19:38:27;14.65;;;3.40;;
42134;SDS011;28312;43.460;11.810;2023-05-10T19:42:31;3.20;;;1.40;;
42134;SDS011;28312;43.460;11.810;2023-05-10T19:46:34;3.45;;;1.00;;
42134;SDS011;28312;43.460;11.810;2023-05-10T19:50:38;2.25;;;0.98;;
42134;SDS011;28312;43.460;11.810;2023-05-10T19:54:42;1.35;;;0.68;;
42134;SDS011;28312;43.460;11.810;2023-05-10T19:58:46;0.93;;;0.50;;
42134;SDS011;28312;43.460;11.810;2023-05-10T20:02:50;1.55;;;0.55;;
42134;SDS011;28312;43.460;11.810;2023-05-10T20:06:53;0.50;;;0.45;;
42134;SDS011;28312;43.460;11.810;2023-05-10T20:10:57;1.00;;;0.40;;
42134;SDS011;28312;43.460;11.810;2023-05-10T20:15:05;0.30;;;0.30;;
42134;SDS011;28312;43.460;11.810;2023-05-10T20:19:09;0.30;;;0.30;;
42134;SDS011;28312;43.460;11.810;2023-05-10T20:23:13;0.60;;;0.40;;
42134;SDS011;28312;43.460;11.810;2023-05-10T20:27:17;0.30;;;0.30;;
42134;SDS011;28312;43.460;11.810;2023-05-10T20:31:24;0.25;;;0.20;;
42134;SDS011;28312;43.460;11.810;2023-05-10T20:35:29;0.20;;;0.20;;
42134;SDS011;28312;43.460;11.810;2023-05-10T20:39:34;0.25;;;0.25;;
42134;SDS011;28312;43.460;11.810;2023-05-10T20:43:39;0.60;;;0.43;;
42134;SDS011;28312;43.460;11.810;2023-05-10T20:47:42;0.68;;;0.43;;
42134;SDS011;28312;43.460;11.810;2023-05-10T20:51:46;0.20;;;0.20;;
42134;SDS011;28312;43.460;11.810;2023-05-10T20:55:50;0.30;;;0.30;;
42134;SDS011;28312;43.460;11.810;2023-05-10T20:59:53;0.25;;;0.25;;
42134;SDS011;28312;43.460;11.810;2023-05-10T21:03:57;0.43;;;0.30;;
42134;SDS011;28312;43.460;11.810;2023-05-10T21:08:01;0.20;;;0.20;;
42134;SDS011;28312;43.460;11.810;2023-05-10T21:12:04;0.30;;;0.30;;
42134;SDS011;28312;43.460;11.810;2023-05-10T21:16:08;0.20;;;0.20;;
42134;SDS011;28312;43.460;11.810;2023-05-10T21:20:12;0.20;;;0.20;;
42134;SDS011;28312;43.460;11.810;2023-05-10T21:24:15;0.20;;;0.20;;
42134;SDS011;28312;43.460;11.810;2023-05-10T21:28:19;0.20;;;0.20;;
42134;SDS011;28312;43.460;11.810;2023-05-10T21:32:23;0.10;;;0.10;;
42134;SDS011;28312;43.460;11.810;2023-05-10T21:36:27;0.10;;;0.10;;
42134;SDS011;28312;43.460;11.810;2023-05-10T21:40:30;0.25;;;0.25;;
42134;SDS011;28312;43.460;11.810;2023-05-10T21:44:34;0.98;;;0.30;;
42134;SDS011;28312;43.460;11.810;2023-05-10T21:48:39;0.20;;;0.20;;
42134;SDS011;28312;43.460;11.810;2023-05-10T21:52:43;0.30;;;0.20;;
42134;SDS011;28312;43.460;11.810;2023-05-10T21:56:46;0.30;;;0.30;;
42134;SDS011;28312;43.460;11.810;2023-05-10T22:00:50;1.10;;;0.20;;
42134;SDS011;28312;43.460;11.810;2023-05-10T22:04:54;0.30;;;0.30;;
42134;SDS011;28312;43.460;11.810;2023-05-10T22:08:58;0.40;;;0.30;;
42134;SDS011;28312;43.460;11.810;2023-05-10T22:13:01;0.70;;;0.50;;
42134;SDS011;28312;43.460;11.810;2023-05-10T22:17:07;0.68;;;0.32;;
42134;SDS011;28312;43.460;11.810;2023-05-10T22:21:11;0.20;;;0.20;;
42134;SDS011;28312;43.460;11.810;2023-05-10T22:25:15;0.20;;;0.20;;
42134;SDS011;28312;43.460;11.810;2023-05-10T22:29:18;0.20;;;0.20;;
42134;SDS011;28312;43.460;11.810;2023-05-10T22:33:22;0.73;;;0.43;;
42134;SDS011;28312;43.460;11.810;2023-05-10T22:37:25;0.45;;;0.40;;
42134;SDS011;28312;43.460;11.810;2023-05-10T22:41:29;1.75;;;0.50;;
42134;SDS011;28312;43.460;11.810;2023-05-10T22:45:32;0.30;;;0.30;;
42134;SDS011;28312;43.460;11.810;2023-05-10T22:49:36;0.20;;;0.20;;
42134;SDS011;28312;43.460;11.810;2023-05-10T22:53:40;0.35;;;0.35;;
42134;SDS011;28312;43.460;11.810;2023-05-10T22:57:43;2.05;;;0.57;;
42134;SDS011;28312;43.460;11.810;2023-05-10T23:01:48;0.73;;;0.40;;
42134;SDS011;28312;43.460;11.810;2023-05-10T23:05:51;0.10;;;0.10;;
42134;SDS011;28312;43.460;11.810;2023-05-10T23:09:57;0.63;;;0.47;;
42134;SDS011;28312;43.460;11.810;2023-05-10T23:14:01;0.32;;;0.30;;
42134;SDS011;28312;43.460;11.810;2023-05-10T23:18:05;0.20;;;0.20;;
42134;SDS011;28312;43.460;11.810;2023-05-10T23:22:10;0.43;;;0.43;;
42134;SDS011;28312;43.460;11.810;2023-05-10T23:26:13;0.55;;;0.40;;
42134;SDS011;28312;43.460;11.810;2023-05-10T23:30:17;0.30;;;0.30;;
42134;SDS011;28312;43.460;11.810;2023-05-10T23:34:20;0.20;;;0.20;;
42134;SDS011;28312;43.460;11.810;2023-05-10T23:38:24;0.22;;;0.20;;
42134;SDS011;28312;43.460;11.810;2023-05-10T23:42:28;0.20;;;0.20;;
42134;SDS011;28312;43.460;11.810;2023-05-10T23:46:31;0.30;;;0.30;;
42134;SDS011;28312;43.460;11.810;2023-05-10T23:50:35;0.30;;;0.30;;
42134;SDS011;28312;43.460;11.810;2023-05-10T23:54:38;0.45;;;0.40;;
42134;SDS011;28312;43.460;11.810;2023-05-10T23:58:42;0.35;;;0.35;;
